Cove House Classic

Overall Finish List

August 14, 21


Results By Pro-Fit Race Timing
50 Mile
26 Mile

63 Mile

Place Name City Bib No Gender Chip Time Gun Time
1 Christian Eric Billote 4805 M 3:04:38.0 3:04:38.0
2 Tom Warren Salado TX 4759 M 3:04:39.4 3:04:39.4
3 Mathias Miyahara 4806 M 3:04:40.0 3:04:40.0
4 Perry Cannon Copperas Cove TX 4731 M 3:04:41.0 3:04:41.0
5 Melvin Natal Killeen TX 4748 M 3:04:42.0 3:04:42.0
6 Victor Meza 4791 M 3:06:19.7 3:06:19.7
7 Justin Gor College Station TX 4738 M 3:08:20.0 3:08:20.0
8 Chan Huynh Belton TX 4739 M 3:10:39.1 3:10:39.1
9 Maatje Benassi Temple TX 4727 F 3:16:30.0 3:16:30.0
10 Douglas Edwards Copperas Cove TX 4735 M 3:17:46.3 3:17:46.3
11 Clarence White 4799 M 3:17:47.4 3:17:47.4
12 Richard Esqueda Temple TX 4736 M 3:21:37.2 3:21:37.2
13 Daniel Cradler Round Rock TX 4732 M 3:30:13.2 3:30:13.2
14 Michael Provenzano Belton TX 4751 M 3:30:17.4 3:30:17.4
15 Raul Pacheco 4802 M 3:35:48.7 3:35:48.7
16 William Brown 4798 M 3:37:12.9 3:37:12.9
17 Jorge Maldonado 4807 M 3:46:42.7 3:46:42.7
18 Tom Staggs Belton TX 4756 M 3:51:27.1 3:51:27.1
19 Simone Tucker Belton TX 4758 F 3:52:27.5 3:52:27.5
20 Benjamin Shoptaugh Abilene TX 4755 M 3:57:35.7 3:57:35.7
21 Paul Norman 4789 M 4:00:21.1 4:00:21.1
22 Stacy Weeks 4790 F 4:00:25.5 4:00:25.5
23 Michae Klock Austin TX 4741 M 4:18:42.3 4:18:42.3
24 Owen Sutton Bluffton TX 4757 M 4:19:48.1 4:19:48.1
25 Ken Brown Killeen TX 4730 M 4:22:26.7 4:22:26.7
26 Mixila Arauz Killeen TX 4808 F 4:28:56.2 4:28:56.2
27 Matthew Leck Salado TX 4742 M 4:35:49.0 4:35:49.0
28 Jeanette Lockhart Kingsland TX 4746 F 4:35:59.3 4:35:59.3
29 Leanne Chappell 4812 F 4:38:38.6 4:38:38.6
30 John Sayers Colleycille TX 4754 M 4:44:31.2 4:44:31.2
31 Dwayne Facemire 4800 M 4:47:16.9 4:47:16.9
32 Dustin Rehm 4797 M 4:49:24.4 4:49:24.4
33 Nancy Rehm 4796 F 4:49:25.6 4:49:25.6
34 Clay Garcia Cedar Park TX 4737 M 4:52:17.5 4:52:17.5
35 Virginia Sanders Temple TX 4804 F 4:58:15.0 4:58:15.0
36 Tina Ulanowski 4819 F 4:58:16.2 4:58:16.2
37 Pam Moore Copperas Cove TX 4747 F 5:04:08.5 5:04:08.5
38 Patrick Anderson Killeen TX 4725 M 5:16:49.8 5:16:49.8
39 Sylvester Ross Killeen TX 4752 M 5:16:52.1 5:16:52.1
40 Louis Parkman Fort Worth TX 4750 M 5:37:51.8 5:37:51.8
41 Yerry Brooks Angleton TX 4729 M 5:47:19.4 5:47:19.4
42 Allen Cross Richwood TX 4733 M 5:47:24.9 5:47:24.9
Top  

50 Mile

Place Name City Bib No Gender Chip Time Gun Time
1 Cynthia Johnson Harker Heights TX 4776 F 2:45:29.4 2:45:29.4
2 Jason Bouvier Temple TX 4770 M 2:45:30.0 2:45:30.0
3 Mitchell Youney Belton TX 4787 M 2:45:30.4 2:45:30.4
4 Chris Jenkins georgetown TX 4740 M 2:45:32.4 2:45:32.4
5 Maria Beach Temple TX 4726 F 2:49:22.2 2:49:22.2
6 Christine Jones 4818 F 2:59:00.0 2:59:00.0
7 Marianne Van Houtte Temple TX 4814 F 3:13:11.6 3:13:11.6
8 Lauren McNatt ROUND ROCK TX 4778 F 3:25:35.3 3:25:35.3
9 Randy Parker 4811 M 3:30:14.3 3:30:14.3
10 participant unknown 8000 F 3:30:17.3 3:30:17.3
11 Ivan Sager Austin TX 4782 M 3:31:20.6 3:31:20.6
12 Marc DeWitt Cibolo TX 4772 M 3:35:49.2 3:35:49.2
13 Edward Peters Austin TX 4780 M 3:43:57.2 3:43:57.2
14 Mike Baca Austin TX 4769 M 3:48:11.8 3:48:11.8
15 Ed Jones 4792 M 3:50:49.3 3:50:49.3
16 Roy Jones 4817 M 3:53:08.4 3:53:08.4
17 Charles Chandler Humble TX 4771 M 3:57:00.3 3:57:00.3
18 Wayne McCart Belton TX 4777 M 4:02:14.1 4:02:14.1
19 George Adame Austin TX 4801 M 4:07:15.6 4:07:15.6
20 Sanora Remson 4810 F 4:15:08.3 4:15:08.3
21 Mark Remson 4809 M 4:15:09.6 4:15:09.6
22 Herbert Gately 4803 M 4:16:00.0 4:16:00.0
23 Dominga Anderson Killeen TX 4768 F 4:37:46.6 4:37:46.6
24 Manuel Zapata jr. Pflugerville TX 4788 M 4:51:26.0 4:51:26.0
25 Sarah Goeres Rockdale TX 4774 F 5:17:17.6 5:17:17.6
26 Philip White Austin TX 4786 M 5:17:32.3 5:17:32.3
27 Linda Taylor Waco TX 4783 F 5:21:29.3 5:21:29.3
28 participant unknown 8001 M 5:21:31.0 5:21:31.0
29 alfredo najera lorena TX 4779 M 5:21:35.7 5:21:35.7
30 clara espinal lorena TX 4773 F 5:21:39.0 5:21:39.0
Top  

26 Mile

Place Name City Bib No Gender Chip Time Gun Time
1 Larry Kocian Harker Heights TX 4764 M 1:22:14.5 1:22:14.5
2 Chris Carlson Fort Worth TX 4762 F 1:28:31.0 1:28:31.0
3 Brent McKinney Belton TX 4793 M 1:43:13.9 1:43:13.9
4 Ed Lee Copperas Cove 4816 M 1:43:15.7 1:43:15.7
5 Jose Villasenor Killeen TX 4766 M 1:43:16.6 1:43:16.6
6 Ryan Haverlah Copperas Cove TX 4763 M 1:47:46.0 1:47:46.0
7 Matthew Story Hewitt TX 4765 M 1:50:17.9 1:50:17.9
8 Sara Brennan Austin TX 4761 F 1:51:45.1 1:51:45.1
9 Jim Wyatt Austin TX 4767 M 1:51:47.5 1:51:47.5
10 Robert Henning 4795 M 2:02:12.0 2:02:12.0
11 Davette Henning Kempner TX 4794 F 2:11:00.5 2:11:00.5
12 James Rice 4815 M 2:24:25.6 2:24:25.6
13 Joe Kerby 4813 M 4:37:46.2 4:37:46.2